In Rescue
 
Open Full Screen Window  High Contrast Mode
November 19, 2019 2:00 PM EST
Present Weather: Mist
Weather Information
Wind Direction
  ---
Wind Speed
  00 kt (0 mph)
Wind Gust
  00 kt (0 mph)
Altimeter
29.82 in
Visibility
5 SM
Temperature
05° C
41° F
Dewpoint
03° C
37° F
Humidity
87%
Sky Condition
Overcast @ 3,800 ft
Scattered @ 1,200 ft
MVFR

METAR KAMN 191900Z AUTO 00000KT 5SM BR SCT012 OVC038 05/03 A2982 RMK AO2 T00450025

FAA Disclaimer: The data displayed is for advisory purposes only and is not to be used for flight planning or operations.